createdAt,value
2023-02-08T00:03:16.191Z,-3.8
2023-02-08T00:16:16.211Z,-3.1
2023-02-08T00:29:16.197Z,-3.0
2023-02-08T00:42:16.202Z,-2.7
2023-02-08T00:55:16.185Z,-1.9
2023-02-08T01:08:16.225Z,-3.3
2023-02-08T01:21:16.176Z,-4.1
2023-02-08T01:34:16.182Z,-4.2
2023-02-08T01:47:16.176Z,-3.6
2023-02-08T02:00:16.186Z,-4.1
2023-02-08T02:13:16.215Z,-4.2
2023-02-08T02:26:16.193Z,-4.4
2023-02-08T02:39:16.214Z,-4.7
2023-02-08T02:52:16.198Z,-4.5
2023-02-08T03:05:16.207Z,-4.5
2023-02-08T03:18:16.202Z,-4.8
2023-02-08T03:31:16.326Z,-4.8
2023-02-08T03:44:16.196Z,-4.7
2023-02-08T03:57:16.186Z,-4.9
2023-02-08T04:10:16.199Z,-5.3
2023-02-08T04:23:16.248Z,-5.5
2023-02-08T04:36:16.190Z,-5.3
2023-02-08T04:49:16.226Z,-5.3
2023-02-08T05:02:16.202Z,-5.3
2023-02-08T05:15:16.239Z,-5.1
2023-02-08T05:28:16.306Z,-5.6
2023-02-08T05:41:16.240Z,-5.8
2023-02-08T05:54:16.248Z,-5.7
2023-02-08T06:07:16.246Z,-5.7
2023-02-08T06:20:16.302Z,-5.8
2023-02-08T06:33:16.294Z,-5.5
2023-02-08T06:46:16.277Z,-5.0
2023-02-08T06:59:16.294Z,-4.8
2023-02-08T07:12:16.313Z,-4.8
2023-02-08T07:25:16.333Z,-4.6
2023-02-08T07:29:03.394Z,-4.5
2023-02-08T07:42:02.874Z,-3.6
2023-02-08T07:55:04.019Z,-2.2
2023-02-08T08:08:03.317Z,-0.1
2023-02-08T08:21:03.511Z,1.9
2023-02-08T08:34:03.700Z,3.5
2023-02-08T08:47:03.982Z,3.6
2023-02-08T09:00:04.561Z,3.5
2023-02-08T09:13:04.698Z,3.0
2023-02-08T09:26:04.544Z,3.3
2023-02-08T09:39:04.901Z,3.7
2023-02-08T09:52:04.846Z,3.6
2023-02-08T10:05:04.552Z,4.0
2023-02-08T10:17:46.970Z,3.9
2023-02-08T10:29:46.159Z,4.2
2023-02-08T10:42:46.161Z,4.2
2023-02-08T10:55:46.371Z,4.7
2023-02-08T11:08:46.129Z,4.4
2023-02-08T11:17:01.888Z,4.2
2023-02-08T11:30:01.350Z,4.5
2023-02-08T11:43:01.512Z,4.7
2023-02-08T11:56:01.647Z,4.7
2023-02-08T12:09:01.607Z,5.1
2023-02-08T12:22:01.628Z,5.7
2023-02-08T12:36:04.867Z,4.9
2023-02-08T12:50:01.658Z,5.5
2023-02-08T13:03:01.673Z,5.3
2023-02-08T13:16:01.862Z,5.3
2023-02-08T13:29:01.759Z,5.2
2023-02-08T13:42:01.758Z,5.4
2023-02-08T13:55:01.745Z,5.8
2023-02-08T14:08:01.750Z,6.2
2023-02-08T14:21:01.741Z,5.4
2023-02-08T14:34:01.746Z,4.9
2023-02-08T14:47:01.815Z,4.9
2023-02-08T15:00:01.749Z,5.3
2023-02-08T15:13:01.822Z,5.0
2023-02-08T15:26:01.810Z,4.7
2023-02-08T15:40:02.077Z,4.4
2023-02-08T15:53:02.161Z,3.3
2023-02-08T16:06:02.236Z,2.5
2023-02-08T16:19:02.215Z,2.0
2023-02-08T16:32:02.312Z,1.6
2023-02-08T16:45:02.259Z,1.3
2023-02-08T16:58:02.263Z,0.2
2023-02-08T17:10:02.336Z,-0.1
2023-02-08T17:22:02.343Z,-0.8
2023-02-08T17:34:02.592Z,-1.1
2023-02-08T17:46:02.697Z,-1.5
2023-02-08T17:58:02.627Z,-1.2
2023-02-08T18:10:02.648Z,0.1
2023-02-08T18:22:02.655Z,0.4
2023-02-08T18:34:02.639Z,0.9
2023-02-08T18:46:02.636Z,0.9
2023-02-08T18:58:02.642Z,0.8
2023-02-08T19:10:02.659Z,0.9
2023-02-08T19:22:02.676Z,0.7
2023-02-08T19:34:02.698Z,0.7
2023-02-08T19:43:31.172Z,0.7
2023-02-08T19:55:30.690Z,0.8
2023-02-08T20:07:30.668Z,0.8
2023-02-08T20:19:30.719Z,0.6
2023-02-08T20:31:30.840Z,0.6
2023-02-08T20:43:30.937Z,0.4
2023-02-08T20:55:30.704Z,0.6
2023-02-08T21:07:30.733Z,0.7
2023-02-08T21:19:30.721Z,0.5
2023-02-08T21:31:30.891Z,0.3
2023-02-08T21:43:30.736Z,0.0
2023-02-08T21:55:30.719Z,0.2
2023-02-08T22:07:30.721Z,0.3
2023-02-08T22:19:30.720Z,0.2
2023-02-08T22:31:30.816Z,0.1
2023-02-08T22:43:30.738Z,0.1
2023-02-08T22:55:30.742Z,0.0
2023-02-08T23:07:30.722Z,0.0
2023-02-08T23:19:30.796Z,-0.4
2023-02-08T23:31:30.821Z,-0.7
2023-02-08T23:43:30.789Z,-1.2
2023-02-08T23:55:30.817Z,-1.7
